sensor_id;sensor_type;location;lat;lon;timestamp;P1;durP1;ratioP1;P2;durP2;ratioP2
77061;SDS011;65989;51.686;5.138;2023-07-30T00:02:08;8.80;;;2.55;;
77061;SDS011;65989;51.686;5.138;2023-07-30T00:04:33;8.67;;;2.70;;
77061;SDS011;65989;51.686;5.138;2023-07-30T00:06:58;7.53;;;2.80;;
77061;SDS011;65989;51.686;5.138;2023-07-30T00:09:23;10.60;;;2.80;;
77061;SDS011;65989;51.686;5.138;2023-07-30T00:11:49;10.20;;;2.87;;
77061;SDS011;65989;51.686;5.138;2023-07-30T00:14:14;12.03;;;2.90;;
77061;SDS011;65989;51.686;5.138;2023-07-30T00:16:39;15.53;;;3.20;;
77061;SDS011;65989;51.686;5.138;2023-07-30T00:19:04;11.17;;;3.30;;
77061;SDS011;65989;51.686;5.138;2023-07-30T00:21:30;14.93;;;3.20;;
77061;SDS011;65989;51.686;5.138;2023-07-30T00:23:55;12.53;;;2.90;;
77061;SDS011;65989;51.686;5.138;2023-07-30T00:26:20;12.33;;;3.20;;
77061;SDS011;65989;51.686;5.138;2023-07-30T00:28:45;10.53;;;3.37;;
77061;SDS011;65989;51.686;5.138;2023-07-30T00:31:11;10.53;;;3.00;;
77061;SDS011;65989;51.686;5.138;2023-07-30T00:33:36;9.63;;;3.40;;
77061;SDS011;65989;51.686;5.138;2023-07-30T00:36:01;11.97;;;3.30;;
77061;SDS011;65989;51.686;5.138;2023-07-30T00:38:26;10.97;;;3.43;;
77061;SDS011;65989;51.686;5.138;2023-07-30T00:40:52;13.15;;;3.60;;
77061;SDS011;65989;51.686;5.138;2023-07-30T00:43:17;11.23;;;3.50;;
77061;SDS011;65989;51.686;5.138;2023-07-30T00:45:43;10.30;;;3.27;;
77061;SDS011;65989;51.686;5.138;2023-07-30T00:48:09;12.90;;;3.78;;
77061;SDS011;65989;51.686;5.138;2023-07-30T00:50:35;14.93;;;3.50;;
77061;SDS011;65989;51.686;5.138;2023-07-30T00:53:00;13.00;;;4.10;;
77061;SDS011;65989;51.686;5.138;2023-07-30T00:55:26;13.37;;;3.60;;
77061;SDS011;65989;51.686;5.138;2023-07-30T00:57:51;10.57;;;4.07;;
77061;SDS011;65989;51.686;5.138;2023-07-30T01:00:16;12.07;;;3.50;;
77061;SDS011;65989;51.686;5.138;2023-07-30T01:02:42;16.60;;;3.60;;
77061;SDS011;65989;51.686;5.138;2023-07-30T01:05:08;11.07;;;3.60;;
77061;SDS011;65989;51.686;5.138;2023-07-30T01:07:33;10.70;;;4.13;;
77061;SDS011;65989;51.686;5.138;2023-07-30T01:09:59;12.23;;;3.30;;
77061;SDS011;65989;51.686;5.138;2023-07-30T01:12:24;15.20;;;3.53;;
77061;SDS011;65989;51.686;5.138;2023-07-30T01:14:50;12.98;;;3.60;;
77061;SDS011;65989;51.686;5.138;2023-07-30T01:17:16;13.25;;;3.75;;
77061;SDS011;65989;51.686;5.138;2023-07-30T01:19:42;13.10;;;3.47;;
77061;SDS011;65989;51.686;5.138;2023-07-30T01:22:08;13.40;;;3.87;;
77061;SDS011;65989;51.686;5.138;2023-07-30T01:24:33;13.80;;;3.57;;
77061;SDS011;65989;51.686;5.138;2023-07-30T01:26:59;13.93;;;3.80;;
77061;SDS011;65989;51.686;5.138;2023-07-30T01:29:38;11.70;;;3.60;;
77061;SDS011;65989;51.686;5.138;2023-07-30T01:32:07;12.40;;;3.75;;
77061;SDS011;65989;51.686;5.138;2023-07-30T01:34:34;13.30;;;3.78;;
77061;SDS011;65989;51.686;5.138;2023-07-30T01:36:59;10.40;;;3.53;;
77061;SDS011;65989;51.686;5.138;2023-07-30T01:39:25;14.53;;;3.70;;
77061;SDS011;65989;51.686;5.138;2023-07-30T01:41:53;11.13;;;3.60;;
77061;SDS011;65989;51.686;5.138;2023-07-30T01:44:18;15.50;;;3.67;;
77061;SDS011;65989;51.686;5.138;2023-07-30T01:46:43;15.93;;;3.70;;
77061;SDS011;65989;51.686;5.138;2023-07-30T01:49:08;12.03;;;3.70;;
77061;SDS011;65989;51.686;5.138;2023-07-30T01:51:34;19.33;;;4.03;;
77061;SDS011;65989;51.686;5.138;2023-07-30T01:53:59;19.20;;;4.63;;
77061;SDS011;65989;51.686;5.138;2023-07-30T01:56:24;14.37;;;3.90;;
77061;SDS011;65989;51.686;5.138;2023-07-30T01:58:49;17.00;;;4.37;;
77061;SDS011;65989;51.686;5.138;2023-07-30T02:01:15;15.20;;;3.73;;
77061;SDS011;65989;51.686;5.138;2023-07-30T02:03:40;17.45;;;4.40;;
77061;SDS011;65989;51.686;5.138;2023-07-30T02:06:05;19.60;;;4.20;;
77061;SDS011;65989;51.686;5.138;2023-07-30T02:08:31;19.00;;;4.57;;
77061;SDS011;65989;51.686;5.138;2023-07-30T02:10:56;17.63;;;4.00;;
77061;SDS011;65989;51.686;5.138;2023-07-30T02:13:22;14.45;;;4.68;;
77061;SDS011;65989;51.686;5.138;2023-07-30T02:15:47;14.60;;;4.43;;
77061;SDS011;65989;51.686;5.138;2023-07-30T02:18:13;17.47;;;5.00;;
77061;SDS011;65989;51.686;5.138;2023-07-30T02:20:38;14.17;;;4.13;;
77061;SDS011;65989;51.686;5.138;2023-07-30T02:23:03;19.97;;;4.93;;
77061;SDS011;65989;51.686;5.138;2023-07-30T02:25:29;19.90;;;4.85;;
77061;SDS011;65989;51.686;5.138;2023-07-30T02:27:54;16.77;;;4.50;;
77061;SDS011;65989;51.686;5.138;2023-07-30T02:30:19;20.80;;;4.93;;
77061;SDS011;65989;51.686;5.138;2023-07-30T02:32:45;17.37;;;4.53;;
77061;SDS011;65989;51.686;5.138;2023-07-30T02:35:10;19.13;;;5.17;;
77061;SDS011;65989;51.686;5.138;2023-07-30T02:37:35;16.37;;;5.13;;
77061;SDS011;65989;51.686;5.138;2023-07-30T02:40:00;18.27;;;4.93;;
77061;SDS011;65989;51.686;5.138;2023-07-30T02:42:27;17.58;;;4.97;;
77061;SDS011;65989;51.686;5.138;2023-07-30T02:44:52;23.60;;;5.20;;
77061;SDS011;65989;51.686;5.138;2023-07-30T02:47:17;18.50;;;4.70;;
77061;SDS011;65989;51.686;5.138;2023-07-30T02:49:42;24.80;;;5.77;;
77061;SDS011;65989;51.686;5.138;2023-07-30T02:52:08;21.73;;;5.93;;
77061;SDS011;65989;51.686;5.138;2023-07-30T02:54:33;20.33;;;5.50;;
77061;SDS011;65989;51.686;5.138;2023-07-30T02:56:58;20.67;;;4.90;;
77061;SDS011;65989;51.686;5.138;2023-07-30T02:59:23;23.13;;;5.77;;
77061;SDS011;65989;51.686;5.138;2023-07-30T03:01:49;21.33;;;6.20;;
77061;SDS011;65989;51.686;5.138;2023-07-30T03:04:14;20.73;;;5.50;;
77061;SDS011;65989;51.686;5.138;2023-07-30T03:06:39;20.85;;;5.68;;
77061;SDS011;65989;51.686;5.138;2023-07-30T03:09:04;25.17;;;5.87;;
77061;SDS011;65989;51.686;5.138;2023-07-30T03:11:30;22.73;;;6.23;;
77061;SDS011;65989;51.686;5.138;2023-07-30T03:13:55;18.87;;;5.47;;
77061;SDS011;65989;51.686;5.138;2023-07-30T03:16:20;21.13;;;6.40;;
77061;SDS011;65989;51.686;5.138;2023-07-30T03:18:45;20.43;;;5.77;;
77061;SDS011;65989;51.686;5.138;2023-07-30T03:21:11;21.83;;;5.60;;
77061;SDS011;65989;51.686;5.138;2023-07-30T03:23:39;21.83;;;6.20;;
77061;SDS011;65989;51.686;5.138;2023-07-30T03:26:05;21.70;;;6.43;;
77061;SDS011;65989;51.686;5.138;2023-07-30T03:28:31;20.00;;;5.97;;
77061;SDS011;65989;51.686;5.138;2023-07-30T03:30:57;26.77;;;6.32;;
77061;SDS011;65989;51.686;5.138;2023-07-30T03:33:22;23.47;;;6.80;;
77061;SDS011;65989;51.686;5.138;2023-07-30T03:35:47;23.07;;;6.50;;
77061;SDS011;65989;51.686;5.138;2023-07-30T03:38:13;17.58;;;6.20;;
77061;SDS011;65989;51.686;5.138;2023-07-30T03:40:38;23.87;;;7.07;;
77061;SDS011;65989;51.686;5.138;2023-07-30T03:43:03;23.03;;;6.10;;
77061;SDS011;65989;51.686;5.138;2023-07-30T03:45:29;27.90;;;6.97;;
77061;SDS011;65989;51.686;5.138;2023-07-30T03:47:54;23.77;;;6.47;;
77061;SDS011;65989;51.686;5.138;2023-07-30T03:50:19;29.13;;;7.17;;
77061;SDS011;65989;51.686;5.138;2023-07-30T03:52:44;24.53;;;7.17;;
77061;SDS011;65989;51.686;5.138;2023-07-30T03:55:09;25.07;;;7.10;;
77061;SDS011;65989;51.686;5.138;2023-07-30T03:57:35;24.43;;;6.77;;
77061;SDS011;65989;51.686;5.138;2023-07-30T04:00:00;23.63;;;7.03;;
77061;SDS011;65989;51.686;5.138;2023-07-30T04:02:25;30.80;;;7.43;;
77061;SDS011;65989;51.686;5.138;2023-07-30T04:04:51;29.13;;;6.77;;
77061;SDS011;65989;51.686;5.138;2023-07-30T04:07:16;29.73;;;8.10;;
77061;SDS011;65989;51.686;5.138;2023-07-30T04:09:41;20.57;;;6.80;;
77061;SDS011;65989;51.686;5.138;2023-07-30T04:12:06;18.97;;;7.07;;
77061;SDS011;65989;51.686;5.138;2023-07-30T04:14:32;27.77;;;8.27;;
77061;SDS011;65989;51.686;5.138;2023-07-30T04:16:57;27.80;;;7.83;;
77061;SDS011;65989;51.686;5.138;2023-07-30T04:19:22;24.77;;;7.57;;
77061;SDS011;65989;51.686;5.138;2023-07-30T04:21:47;27.60;;;8.50;;
77061;SDS011;65989;51.686;5.138;2023-07-30T04:24:13;23.43;;;8.13;;
77061;SDS011;65989;51.686;5.138;2023-07-30T04:26:38;23.33;;;8.70;;
77061;SDS011;65989;51.686;5.138;2023-07-30T04:29:03;26.40;;;8.93;;
77061;SDS011;65989;51.686;5.138;2023-07-30T04:31:28;30.00;;;8.90;;
77061;SDS011;65989;51.686;5.138;2023-07-30T04:33:54;27.03;;;8.80;;
77061;SDS011;65989;51.686;5.138;2023-07-30T04:36:19;28.67;;;8.83;;
77061;SDS011;65989;51.686;5.138;2023-07-30T04:38:44;31.45;;;9.45;;
77061;SDS011;65989;51.686;5.138;2023-07-30T04:41:09;30.37;;;8.83;;
77061;SDS011;65989;51.686;5.138;2023-07-30T04:43:35;30.03;;;9.23;;
77061;SDS011;65989;51.686;5.138;2023-07-30T04:46:00;26.90;;;9.10;;
77061;SDS011;65989;51.686;5.138;2023-07-30T04:48:25;21.87;;;8.57;;
77061;SDS011;65989;51.686;5.138;2023-07-30T04:50:50;37.83;;;9.17;;
77061;SDS011;65989;51.686;5.138;2023-07-30T04:53:16;27.37;;;8.90;;
77061;SDS011;65989;51.686;5.138;2023-07-30T04:55:43;31.98;;;8.90;;
77061;SDS011;65989;51.686;5.138;2023-07-30T04:58:08;24.27;;;8.77;;
77061;SDS011;65989;51.686;5.138;2023-07-30T05:00:33;22.63;;;8.27;;
77061;SDS011;65989;51.686;5.138;2023-07-30T05:02:58;25.10;;;8.47;;
77061;SDS011;65989;51.686;5.138;2023-07-30T05:05:24;25.50;;;8.43;;
77061;SDS011;65989;51.686;5.138;2023-07-30T05:07:49;20.10;;;8.30;;
77061;SDS011;65989;51.686;5.138;2023-07-30T05:10:15;24.10;;;8.30;;
77061;SDS011;65989;51.686;5.138;2023-07-30T05:12:41;23.45;;;8.25;;
77061;SDS011;65989;51.686;5.138;2023-07-30T05:15:06;29.30;;;8.70;;
77061;SDS011;65989;51.686;5.138;2023-07-30T05:17:31;22.57;;;8.70;;
77061;SDS011;65989;51.686;5.138;2023-07-30T05:19:57;20.80;;;8.55;;
77061;SDS011;65989;51.686;5.138;2023-07-30T05:22:22;29.17;;;8.93;;
77061;SDS011;65989;51.686;5.138;2023-07-30T05:24:47;26.23;;;8.53;;
77061;SDS011;65989;51.686;5.138;2023-07-30T05:27:13;27.33;;;9.27;;
77061;SDS011;65989;51.686;5.138;2023-07-30T05:29:38;27.47;;;9.60;;
77061;SDS011;65989;51.686;5.138;2023-07-30T05:32:03;33.57;;;9.73;;
77061;SDS011;65989;51.686;5.138;2023-07-30T05:34:28;27.80;;;9.37;;
77061;SDS011;65989;51.686;5.138;2023-07-30T05:36:54;27.83;;;9.40;;
77061;SDS011;65989;51.686;5.138;2023-07-30T05:39:19;31.07;;;9.80;;
77061;SDS011;65989;51.686;5.138;2023-07-30T05:41:44;31.23;;;10.10;;
77061;SDS011;65989;51.686;5.138;2023-07-30T05:44:10;28.37;;;10.20;;
77061;SDS011;65989;51.686;5.138;2023-07-30T05:46:35;30.97;;;10.53;;
77061;SDS011;65989;51.686;5.138;2023-07-30T05:49:00;23.13;;;9.33;;
77061;SDS011;65989;51.686;5.138;2023-07-30T05:51:25;28.50;;;9.63;;
77061;SDS011;65989;51.686;5.138;2023-07-30T05:53:50;30.13;;;10.23;;
77061;SDS011;65989;51.686;5.138;2023-07-30T05:56:16;27.17;;;10.57;;
77061;SDS011;65989;51.686;5.138;2023-07-30T05:58:43;27.33;;;10.15;;
77061;SDS011;65989;51.686;5.138;2023-07-30T06:01:08;33.80;;;11.40;;
77061;SDS011;65989;51.686;5.138;2023-07-30T06:03:34;22.07;;;10.40;;
77061;SDS011;65989;51.686;5.138;2023-07-30T06:06:00;26.87;;;10.30;;
77061;SDS011;65989;51.686;5.138;2023-07-30T06:08:25;23.75;;;9.95;;
77061;SDS011;65989;51.686;5.138;2023-07-30T06:10:51;26.97;;;10.50;;
77061;SDS011;65989;51.686;5.138;2023-07-30T06:13:16;32.47;;;10.73;;
77061;SDS011;65989;51.686;5.138;2023-07-30T06:15:41;26.53;;;10.40;;
77061;SDS011;65989;51.686;5.138;2023-07-30T06:18:06;36.90;;;9.97;;
77061;SDS011;65989;51.686;5.138;2023-07-30T06:20:32;28.05;;;9.43;;
77061;SDS011;65989;51.686;5.138;2023-07-30T06:22:57;29.30;;;9.20;;
77061;SDS011;65989;51.686;5.138;2023-07-30T06:25:22;23.53;;;9.10;;
77061;SDS011;65989;51.686;5.138;2023-07-30T06:27:47;21.17;;;8.53;;
77061;SDS011;65989;51.686;5.138;2023-07-30T06:30:13;32.87;;;9.90;;
77061;SDS011;65989;51.686;5.138;2023-07-30T06:32:38;23.87;;;8.80;;
77061;SDS011;65989;51.686;5.138;2023-07-30T06:35:03;23.87;;;7.70;;
77061;SDS011;65989;51.686;5.138;2023-07-30T06:37:28;23.50;;;8.40;;
77061;SDS011;65989;51.686;5.138;2023-07-30T06:39:54;25.50;;;7.70;;
77061;SDS011;65989;51.686;5.138;2023-07-30T06:42:19;27.87;;;8.00;;
77061;SDS011;65989;51.686;5.138;2023-07-30T06:44:44;24.60;;;7.77;;
77061;SDS011;65989;51.686;5.138;2023-07-30T06:47:09;20.93;;;7.30;;
77061;SDS011;65989;51.686;5.138;2023-07-30T06:49:35;22.67;;;7.00;;
77061;SDS011;65989;51.686;5.138;2023-07-30T06:52:00;24.47;;;6.70;;
77061;SDS011;65989;51.686;5.138;2023-07-30T06:54:25;22.33;;;6.10;;
77061;SDS011;65989;51.686;5.138;2023-07-30T06:56:51;21.13;;;6.07;;
77061;SDS011;65989;51.686;5.138;2023-07-30T06:59:16;24.40;;;6.60;;
77061;SDS011;65989;51.686;5.138;2023-07-30T07:01:41;23.30;;;5.97;;
77061;SDS011;65989;51.686;5.138;2023-07-30T07:04:06;22.13;;;6.47;;
77061;SDS011;65989;51.686;5.138;2023-07-30T07:06:32;22.70;;;6.23;;
77061;SDS011;65989;51.686;5.138;2023-07-30T07:08:57;22.17;;;6.40;;
77061;SDS011;65989;51.686;5.138;2023-07-30T07:11:23;27.05;;;6.80;;
77061;SDS011;65989;51.686;5.138;2023-07-30T07:13:48;19.77;;;6.77;;
77061;SDS011;65989;51.686;5.138;2023-07-30T07:16:13;29.47;;;7.07;;
77061;SDS011;65989;51.686;5.138;2023-07-30T07:18:38;25.00;;;6.73;;
77061;SDS011;65989;51.686;5.138;2023-07-30T07:21:04;26.67;;;6.80;;
77061;SDS011;65989;51.686;5.138;2023-07-30T07:23:29;21.00;;;6.60;;
77061;SDS011;65989;51.686;5.138;2023-07-30T07:25:54;28.13;;;6.73;;
77061;SDS011;65989;51.686;5.138;2023-07-30T07:28:19;21.90;;;6.10;;
77061;SDS011;65989;51.686;5.138;2023-07-30T07:30:45;29.27;;;6.80;;
77061;SDS011;65989;51.686;5.138;2023-07-30T07:33:10;20.63;;;5.90;;
77061;SDS011;65989;51.686;5.138;2023-07-30T07:35:38;24.60;;;6.13;;
77061;SDS011;65989;51.686;5.138;2023-07-30T07:38:03;25.08;;;6.30;;
77061;SDS011;65989;51.686;5.138;2023-07-30T07:40:28;24.83;;;6.13;;
77061;SDS011;65989;51.686;5.138;2023-07-30T07:42:54;26.77;;;6.07;;
77061;SDS011;65989;51.686;5.138;2023-07-30T07:45:20;25.52;;;5.65;;
77061;SDS011;65989;51.686;5.138;2023-07-30T07:47:45;24.70;;;5.50;;
77061;SDS011;65989;51.686;5.138;2023-07-30T07:50:13;26.55;;;6.03;;
77061;SDS011;65989;51.686;5.138;2023-07-30T07:52:38;23.37;;;5.33;;
77061;SDS011;65989;51.686;5.138;2023-07-30T07:55:04;26.80;;;5.47;;
77061;SDS011;65989;51.686;5.138;2023-07-30T07:57:29;23.83;;;5.07;;
77061;SDS011;65989;51.686;5.138;2023-07-30T07:59:55;22.37;;;5.10;;
77061;SDS011;65989;51.686;5.138;2023-07-30T08:02:21;18.80;;;4.33;;
77061;SDS011;65989;51.686;5.138;2023-07-30T08:04:46;22.37;;;4.87;;
77061;SDS011;65989;51.686;5.138;2023-07-30T08:07:11;22.10;;;4.80;;
77061;SDS011;65989;51.686;5.138;2023-07-30T08:09:37;21.13;;;4.70;;
77061;SDS011;65989;51.686;5.138;2023-07-30T08:12:02;16.60;;;4.30;;
77061;SDS011;65989;51.686;5.138;2023-07-30T08:14:27;26.57;;;5.37;;
77061;SDS011;65989;51.686;5.138;2023-07-30T08:16:52;20.63;;;4.60;;
77061;SDS011;65989;51.686;5.138;2023-07-30T08:19:21;18.95;;;4.53;;
77061;SDS011;65989;51.686;5.138;2023-07-30T08:21:46;20.60;;;4.50;;
77061;SDS011;65989;51.686;5.138;2023-07-30T08:24:11;27.50;;;5.17;;
77061;SDS011;65989;51.686;5.138;2023-07-30T08:26:37;20.77;;;5.03;;
77061;SDS011;65989;51.686;5.138;2023-07-30T08:29:02;16.20;;;4.33;;
77061;SDS011;65989;51.686;5.138;2023-07-30T08:31:28;16.35;;;4.72;;
77061;SDS011;65989;51.686;5.138;2023-07-30T08:33:53;20.23;;;4.20;;
77061;SDS011;65989;51.686;5.138;2023-07-30T08:36:18;20.03;;;5.37;;
77061;SDS011;65989;51.686;5.138;2023-07-30T08:38:44;20.07;;;5.00;;
77061;SDS011;65989;51.686;5.138;2023-07-30T08:41:09;18.13;;;4.47;;
77061;SDS011;65989;51.686;5.138;2023-07-30T08:43:34;16.87;;;3.83;;
77061;SDS011;65989;51.686;5.138;2023-07-30T08:46:00;15.63;;;3.67;;
77061;SDS011;65989;51.686;5.138;2023-07-30T08:48:26;20.63;;;4.35;;
77061;SDS011;65989;51.686;5.138;2023-07-30T08:50:51;16.23;;;3.60;;
77061;SDS011;65989;51.686;5.138;2023-07-30T08:53:17;17.05;;;3.45;;
77061;SDS011;65989;51.686;5.138;2023-07-30T08:55:42;14.97;;;3.50;;
77061;SDS011;65989;51.686;5.138;2023-07-30T08:58:08;15.23;;;3.60;;
77061;SDS011;65989;51.686;5.138;2023-07-30T09:00:34;15.57;;;3.70;;
77061;SDS011;65989;51.686;5.138;2023-07-30T09:03:02;13.73;;;2.97;;
77061;SDS011;65989;51.686;5.138;2023-07-30T09:05:29;19.00;;;3.72;;
77061;SDS011;65989;51.686;5.138;2023-07-30T09:07:54;16.80;;;3.45;;
77061;SDS011;65989;51.686;5.138;2023-07-30T09:10:20;15.97;;;3.03;;
77061;SDS011;65989;51.686;5.138;2023-07-30T09:12:45;16.80;;;3.60;;
77061;SDS011;65989;51.686;5.138;2023-07-30T09:15:10;17.30;;;3.17;;
77061;SDS011;65989;51.686;5.138;2023-07-30T09:17:36;17.13;;;3.50;;
77061;SDS011;65989;51.686;5.138;2023-07-30T09:20:02;12.30;;;2.90;;
77061;SDS011;65989;51.686;5.138;2023-07-30T09:22:29;16.80;;;3.60;;
77061;SDS011;65989;51.686;5.138;2023-07-30T09:24:55;13.73;;;3.17;;
77061;SDS011;65989;51.686;5.138;2023-07-30T09:27:21;15.60;;;3.40;;
77061;SDS011;65989;51.686;5.138;2023-07-30T09:29:58;13.52;;;3.20;;
77061;SDS011;65989;51.686;5.138;2023-07-30T09:32:27;13.52;;;3.55;;
77061;SDS011;65989;51.686;5.138;2023-07-30T09:34:52;14.17;;;2.93;;
77061;SDS011;65989;51.686;5.138;2023-07-30T09:37:18;10.77;;;2.97;;
77061;SDS011;65989;51.686;5.138;2023-07-30T09:39:43;12.13;;;3.13;;
77061;SDS011;65989;51.686;5.138;2023-07-30T09:42:08;15.73;;;3.27;;
77061;SDS011;65989;51.686;5.138;2023-07-30T09:44:33;11.67;;;3.50;;
77061;SDS011;65989;51.686;5.138;2023-07-30T09:47:00;9.70;;;3.07;;
77061;SDS011;65989;51.686;5.138;2023-07-30T09:49:29;14.02;;;3.50;;
77061;SDS011;65989;51.686;5.138;2023-07-30T09:51:55;12.20;;;3.27;;
77061;SDS011;65989;51.686;5.138;2023-07-30T09:54:20;12.70;;;3.73;;
77061;SDS011;65989;51.686;5.138;2023-07-30T09:56:47;10.95;;;2.88;;
77061;SDS011;65989;51.686;5.138;2023-07-30T09:59:12;11.20;;;3.00;;
77061;SDS011;65989;51.686;5.138;2023-07-30T10:01:38;10.63;;;3.30;;
77061;SDS011;65989;51.686;5.138;2023-07-30T10:04:09;11.73;;;2.70;;
77061;SDS011;65989;51.686;5.138;2023-07-30T10:06:35;11.88;;;3.47;;
77061;SDS011;65989;51.686;5.138;2023-07-30T10:09:01;8.80;;;2.90;;
77061;SDS011;65989;51.686;5.138;2023-07-30T10:11:26;12.47;;;3.40;;
77061;SDS011;65989;51.686;5.138;2023-07-30T10:13:52;10.73;;;2.87;;
77061;SDS011;65989;51.686;5.138;2023-07-30T10:16:18;13.32;;;3.05;;
77061;SDS011;65989;51.686;5.138;2023-07-30T10:18:43;21.63;;;3.37;;
77061;SDS011;65989;51.686;5.138;2023-07-30T10:21:09;12.03;;;3.13;;
77061;SDS011;65989;51.686;5.138;2023-07-30T10:23:34;15.13;;;3.15;;
77061;SDS011;65989;51.686;5.138;2023-07-30T10:26:05;13.27;;;3.20;;
77061;SDS011;65989;51.686;5.138;2023-07-30T10:28:33;10.20;;;2.88;;
77061;SDS011;65989;51.686;5.138;2023-07-30T10:31:06;10.73;;;3.00;;
77061;SDS011;65989;51.686;5.138;2023-07-30T10:33:49;13.15;;;3.05;;
77061;SDS011;65989;51.686;5.138;2023-07-30T10:36:38;13.52;;;3.35;;
77061;SDS011;65989;51.686;5.138;2023-07-30T10:39:10;13.43;;;3.28;;
77061;SDS011;65989;51.686;5.138;2023-07-30T10:41:36;11.47;;;2.73;;
77061;SDS011;65989;51.686;5.138;2023-07-30T10:44:02;14.65;;;3.40;;
77061;SDS011;65989;51.686;5.138;2023-07-30T10:46:27;11.30;;;2.90;;
77061;SDS011;65989;51.686;5.138;2023-07-30T10:48:53;14.20;;;3.13;;
77061;SDS011;65989;51.686;5.138;2023-07-30T10:51:19;14.73;;;2.77;;
77061;SDS011;65989;51.686;5.138;2023-07-30T10:53:48;11.17;;;2.57;;
77061;SDS011;65989;51.686;5.138;2023-07-30T10:56:21;13.75;;;3.10;;
77061;SDS011;65989;51.686;5.138;2023-07-30T10:58:50;10.13;;;2.53;;
77061;SDS011;65989;51.686;5.138;2023-07-30T11:01:15;14.38;;;2.83;;
77061;SDS011;65989;51.686;5.138;2023-07-30T11:03:41;11.20;;;2.80;;
77061;SDS011;65989;51.686;5.138;2023-07-30T11:06:06;9.33;;;2.43;;
77061;SDS011;65989;51.686;5.138;2023-07-30T11:11:01;12.43;;;2.63;;
77061;SDS011;65989;51.686;5.138;2023-07-30T11:13:27;11.23;;;2.83;;
77061;SDS011;65989;51.686;5.138;2023-07-30T11:15:52;11.80;;;2.60;;
77061;SDS011;65989;51.686;5.138;2023-07-30T11:18:17;12.23;;;2.30;;
77061;SDS011;65989;51.686;5.138;2023-07-30T11:20:45;10.43;;;2.40;;
77061;SDS011;65989;51.686;5.138;2023-07-30T11:23:17;10.23;;;2.40;;
77061;SDS011;65989;51.686;5.138;2023-07-30T11:25:45;8.15;;;2.08;;
77061;SDS011;65989;51.686;5.138;2023-07-30T11:28:10;8.23;;;2.13;;
77061;SDS011;65989;51.686;5.138;2023-07-30T11:30:35;10.23;;;2.00;;
77061;SDS011;65989;51.686;5.138;2023-07-30T11:33:01;13.30;;;2.07;;
77061;SDS011;65989;51.686;5.138;2023-07-30T11:35:26;8.30;;;2.00;;
77061;SDS011;65989;51.686;5.138;2023-07-30T11:37:51;8.43;;;1.93;;
77061;SDS011;65989;51.686;5.138;2023-07-30T11:40:17;9.27;;;1.80;;
77061;SDS011;65989;51.686;5.138;2023-07-30T11:42:42;8.47;;;1.70;;
77061;SDS011;65989;51.686;5.138;2023-07-30T11:45:20;7.47;;;1.77;;
77061;SDS011;65989;51.686;5.138;2023-07-30T11:47:46;14.73;;;1.90;;
77061;SDS011;65989;51.686;5.138;2023-07-30T11:50:11;7.30;;;1.70;;
77061;SDS011;65989;51.686;5.138;2023-07-30T11:52:50;7.20;;;1.63;;
77061;SDS011;65989;51.686;5.138;2023-07-30T11:55:15;10.15;;;1.90;;
77061;SDS011;65989;51.686;5.138;2023-07-30T11:57:40;10.53;;;1.90;;
77061;SDS011;65989;51.686;5.138;2023-07-30T12:00:06;10.30;;;1.67;;
77061;SDS011;65989;51.686;5.138;2023-07-30T12:02:33;7.15;;;1.58;;
77061;SDS011;65989;51.686;5.138;2023-07-30T12:04:58;7.07;;;1.63;;
77061;SDS011;65989;51.686;5.138;2023-07-30T12:07:24;6.70;;;1.90;;
77061;SDS011;65989;51.686;5.138;2023-07-30T12:09:49;8.93;;;1.70;;
77061;SDS011;65989;51.686;5.138;2023-07-30T12:12:15;10.57;;;2.37;;
77061;SDS011;65989;51.686;5.138;2023-07-30T12:17:11;7.38;;;1.83;;
77061;SDS011;65989;51.686;5.138;2023-07-30T12:19:37;6.93;;;1.60;;
77061;SDS011;65989;51.686;5.138;2023-07-30T12:22:02;7.03;;;1.60;;
77061;SDS011;65989;51.686;5.138;2023-07-30T12:24:27;8.55;;;1.70;;
77061;SDS011;65989;51.686;5.138;2023-07-30T12:26:53;12.10;;;1.70;;
77061;SDS011;65989;51.686;5.138;2023-07-30T12:29:18;8.17;;;1.80;;
77061;SDS011;65989;51.686;5.138;2023-07-30T12:31:43;8.87;;;1.83;;
77061;SDS011;65989;51.686;5.138;2023-07-30T12:34:10;8.05;;;1.60;;
77061;SDS011;65989;51.686;5.138;2023-07-30T12:36:36;6.63;;;1.53;;
77061;SDS011;65989;51.686;5.138;2023-07-30T12:39:01;6.80;;;1.67;;
77061;SDS011;65989;51.686;5.138;2023-07-30T12:41:26;9.23;;;1.73;;
77061;SDS011;65989;51.686;5.138;2023-07-30T12:43:55;7.20;;;1.50;;
77061;SDS011;65989;51.686;5.138;2023-07-30T12:46:22;6.07;;;1.60;;
77061;SDS011;65989;51.686;5.138;2023-07-30T12:48:47;7.13;;;1.50;;
77061;SDS011;65989;51.686;5.138;2023-07-30T12:51:12;6.40;;;1.50;;
77061;SDS011;65989;51.686;5.138;2023-07-30T12:53:38;5.83;;;1.40;;
77061;SDS011;65989;51.686;5.138;2023-07-30T12:56:03;7.20;;;1.47;;
77061;SDS011;65989;51.686;5.138;2023-07-30T12:58:28;8.47;;;2.00;;
77061;SDS011;65989;51.686;5.138;2023-07-30T13:00:53;6.73;;;1.40;;
77061;SDS011;65989;51.686;5.138;2023-07-30T13:03:19;5.63;;;1.50;;
77061;SDS011;65989;51.686;5.138;2023-07-30T13:05:44;4.77;;;1.37;;
77061;SDS011;65989;51.686;5.138;2023-07-30T13:08:09;4.43;;;1.40;;
77061;SDS011;65989;51.686;5.138;2023-07-30T13:10:34;6.47;;;1.60;;
77061;SDS011;65989;51.686;5.138;2023-07-30T13:13:00;6.35;;;1.40;;
77061;SDS011;65989;51.686;5.138;2023-07-30T13:15:26;10.30;;;1.70;;
77061;SDS011;65989;51.686;5.138;2023-07-30T13:17:52;8.65;;;1.50;;
77061;SDS011;65989;51.686;5.138;2023-07-30T13:20:18;6.73;;;1.40;;
77061;SDS011;65989;51.686;5.138;2023-07-30T13:22:43;7.03;;;1.47;;
77061;SDS011;65989;51.686;5.138;2023-07-30T13:25:08;5.63;;;1.63;;
77061;SDS011;65989;51.686;5.138;2023-07-30T13:27:33;9.67;;;1.70;;
77061;SDS011;65989;51.686;5.138;2023-07-30T13:29:58;5.13;;;1.40;;
77061;SDS011;65989;51.686;5.138;2023-07-30T13:32:24;5.07;;;1.37;;
77061;SDS011;65989;51.686;5.138;2023-07-30T13:34:49;8.27;;;1.50;;
77061;SDS011;65989;51.686;5.138;2023-07-30T13:37:14;10.67;;;1.70;;
77061;SDS011;65989;51.686;5.138;2023-07-30T13:39:39;10.93;;;2.00;;
77061;SDS011;65989;51.686;5.138;2023-07-30T13:42:07;7.47;;;1.70;;
77061;SDS011;65989;51.686;5.138;2023-07-30T13:44:33;6.13;;;1.63;;
77061;SDS011;65989;51.686;5.138;2023-07-30T13:46:58;8.07;;;1.70;;
77061;SDS011;65989;51.686;5.138;2023-07-30T13:49:23;6.83;;;1.90;;
77061;SDS011;65989;51.686;5.138;2023-07-30T13:51:49;8.83;;;1.90;;
77061;SDS011;65989;51.686;5.138;2023-07-30T13:54:14;6.72;;;1.80;;
77061;SDS011;65989;51.686;5.138;2023-07-30T13:56:39;8.97;;;2.10;;
77061;SDS011;65989;51.686;5.138;2023-07-30T13:59:05;10.83;;;2.00;;
77061;SDS011;65989;51.686;5.138;2023-07-30T14:01:30;10.77;;;2.10;;
77061;SDS011;65989;51.686;5.138;2023-07-30T14:03:56;7.55;;;1.50;;
77061;SDS011;65989;51.686;5.138;2023-07-30T14:06:21;9.97;;;2.07;;
77061;SDS011;65989;51.686;5.138;2023-07-30T14:08:46;8.40;;;1.90;;
77061;SDS011;65989;51.686;5.138;2023-07-30T14:11:11;10.30;;;2.07;;
77061;SDS011;65989;51.686;5.138;2023-07-30T14:13:37;8.13;;;1.60;;
77061;SDS011;65989;51.686;5.138;2023-07-30T14:16:02;9.50;;;2.40;;
77061;SDS011;65989;51.686;5.138;2023-07-30T14:18:27;9.17;;;1.90;;
77061;SDS011;65989;51.686;5.138;2023-07-30T14:20:52;9.60;;;2.07;;
77061;SDS011;65989;51.686;5.138;2023-07-30T14:23:18;13.73;;;2.27;;
77061;SDS011;65989;51.686;5.138;2023-07-30T14:25:43;12.77;;;2.23;;
77061;SDS011;65989;51.686;5.138;2023-07-30T14:28:09;12.50;;;2.22;;
77061;SDS011;65989;51.686;5.138;2023-07-30T14:30:34;15.80;;;2.53;;
77061;SDS011;65989;51.686;5.138;2023-07-30T14:33:00;11.45;;;2.40;;